sensor_id;sensor_type;location;lat;lon;timestamp;temperature;humidity
55777;DHT22;54079;44.540;18.784;2023-11-22T00:01:06;11.80;99.90
55777;DHT22;54079;44.540;18.784;2023-11-22T00:03:32;11.70;99.90
55777;DHT22;54079;44.540;18.784;2023-11-22T00:05:58;11.80;99.90
55777;DHT22;54079;44.540;18.784;2023-11-22T00:08:24;11.50;99.90
55777;DHT22;54079;44.540;18.784;2023-11-22T00:10:50;11.60;99.90
55777;DHT22;54079;44.540;18.784;2023-11-22T00:13:16;11.80;99.90
55777;DHT22;54079;44.540;18.784;2023-11-22T00:15:42;11.80;99.90
55777;DHT22;54079;44.540;18.784;2023-11-22T00:18:08;11.80;99.90
55777;DHT22;54079;44.540;18.784;2023-11-22T00:20:35;11.70;99.90
55777;DHT22;54079;44.540;18.784;2023-11-22T00:23:01;11.80;99.90
55777;DHT22;54079;44.540;18.784;2023-11-22T00:25:27;11.90;99.90
55777;DHT22;54079;44.540;18.784;2023-11-22T00:27:53;12.00;99.90
55777;DHT22;54079;44.540;18.784;2023-11-22T00:30:19;12.00;99.90
55777;DHT22;54079;44.540;18.784;2023-11-22T00:32:45;11.90;99.90
55777;DHT22;54079;44.540;18.784;2023-11-22T00:35:11;11.90;99.90
55777;DHT22;54079;44.540;18.784;2023-11-22T00:37:38;11.90;99.90
55777;DHT22;54079;44.540;18.784;2023-11-22T00:40:04;11.90;99.90
55777;DHT22;54079;44.540;18.784;2023-11-22T00:42:36;11.90;99.90
55777;DHT22;54079;44.540;18.784;2023-11-22T00:45:04;11.90;99.90
55777;DHT22;54079;44.540;18.784;2023-11-22T00:47:32;11.90;99.90
55777;DHT22;54079;44.540;18.784;2023-11-22T00:49:58;12.00;99.90
55777;DHT22;54079;44.540;18.784;2023-11-22T00:52:24;11.90;99.90
55777;DHT22;54079;44.540;18.784;2023-11-22T00:54:50;11.80;99.90
55777;DHT22;54079;44.540;18.784;2023-11-22T00:57:16;11.80;99.90
55777;DHT22;54079;44.540;18.784;2023-11-22T00:59:42;11.50;99.90
55777;DHT22;54079;44.540;18.784;2023-11-22T01:02:09;11.70;99.90
55777;DHT22;54079;44.540;18.784;2023-11-22T01:04:35;11.80;99.90
55777;DHT22;54079;44.540;18.784;2023-11-22T01:07:02;11.80;99.90
55777;DHT22;54079;44.540;18.784;2023-11-22T01:09:30;11.50;99.90
55777;DHT22;54079;44.540;18.784;2023-11-22T01:11:58;11.30;99.90
55777;DHT22;54079;44.540;18.784;2023-11-22T01:14:24;11.40;99.90
55777;DHT22;54079;44.540;18.784;2023-11-22T01:16:51;11.40;99.90
55777;DHT22;54079;44.540;18.784;2023-11-22T01:19:17;11.70;99.90
55777;DHT22;54079;44.540;18.784;2023-11-22T01:21:43;11.60;99.90
55777;DHT22;54079;44.540;18.784;2023-11-22T01:24:09;11.60;99.90
55777;DHT22;54079;44.540;18.784;2023-11-22T01:26:35;11.10;99.90
55777;DHT22;54079;44.540;18.784;2023-11-22T01:29:02;11.00;99.90
55777;DHT22;54079;44.540;18.784;2023-11-22T01:31:28;11.00;99.90
55777;DHT22;54079;44.540;18.784;2023-11-22T01:33:54;10.80;99.90
55777;DHT22;54079;44.540;18.784;2023-11-22T01:36:20;10.80;99.90
55777;DHT22;54079;44.540;18.784;2023-11-22T01:38:46;10.80;99.90
55777;DHT22;54079;44.540;18.784;2023-11-22T01:41:13;10.80;99.90
55777;DHT22;54079;44.540;18.784;2023-11-22T01:43:40;10.90;99.90
55777;DHT22;54079;44.540;18.784;2023-11-22T01:46:16;10.60;99.90
55777;DHT22;54079;44.540;18.784;2023-11-22T01:48:47;10.70;99.90
55777;DHT22;54079;44.540;18.784;2023-11-22T01:51:13;10.80;99.90
55777;DHT22;54079;44.540;18.784;2023-11-22T01:53:38;10.80;99.90
55777;DHT22;54079;44.540;18.784;2023-11-22T01:56:04;10.80;99.90
55777;DHT22;54079;44.540;18.784;2023-11-22T01:58:30;11.00;99.90
55777;DHT22;54079;44.540;18.784;2023-11-22T02:00:58;10.90;99.90
55777;DHT22;54079;44.540;18.784;2023-11-22T02:03:25;11.00;99.90
55777;DHT22;54079;44.540;18.784;2023-11-22T02:05:51;10.80;99.90
55777;DHT22;54079;44.540;18.784;2023-11-22T02:08:18;11.00;99.90
55777;DHT22;54079;44.540;18.784;2023-11-22T02:10:44;11.10;99.90
55777;DHT22;54079;44.540;18.784;2023-11-22T02:13:10;11.20;99.90
55777;DHT22;54079;44.540;18.784;2023-11-22T02:15:37;11.40;99.90
55777;DHT22;54079;44.540;18.784;2023-11-22T02:18:03;11.50;99.90
55777;DHT22;54079;44.540;18.784;2023-11-22T02:20:31;11.50;99.90
55777;DHT22;54079;44.540;18.784;2023-11-22T02:23:01;11.30;99.90
55777;DHT22;54079;44.540;18.784;2023-11-22T02:25:27;11.40;99.90
55777;DHT22;54079;44.540;18.784;2023-11-22T02:27:53;11.40;99.90
55777;DHT22;54079;44.540;18.784;2023-11-22T02:30:19;11.40;99.90
55777;DHT22;54079;44.540;18.784;2023-11-22T02:32:45;11.40;99.90
55777;DHT22;54079;44.540;18.784;2023-11-22T02:35:11;11.30;99.90
55777;DHT22;54079;44.540;18.784;2023-11-22T02:37:38;11.20;99.90
55777;DHT22;54079;44.540;18.784;2023-11-22T02:40:18;11.20;99.90
55777;DHT22;54079;44.540;18.784;2023-11-22T02:42:46;11.40;99.90
55777;DHT22;54079;44.540;18.784;2023-11-22T02:45:13;11.40;99.90
55777;DHT22;54079;44.540;18.784;2023-11-22T02:47:39;11.00;99.90
55777;DHT22;54079;44.540;18.784;2023-11-22T02:50:06;11.00;99.90
55777;DHT22;54079;44.540;18.784;2023-11-22T02:52:32;10.90;99.90
55777;DHT22;54079;44.540;18.784;2023-11-22T02:54:58;11.00;99.90
55777;DHT22;54079;44.540;18.784;2023-11-22T02:57:25;10.90;99.90
55777;DHT22;54079;44.540;18.784;2023-11-22T02:59:51;10.60;99.90
55777;DHT22;54079;44.540;18.784;2023-11-22T03:02:18;10.70;99.90
55777;DHT22;54079;44.540;18.784;2023-11-22T03:04:44;10.90;99.90
55777;DHT22;54079;44.540;18.784;2023-11-22T03:07:10;10.80;99.90
55777;DHT22;54079;44.540;18.784;2023-11-22T03:09:36;10.70;99.90
55777;DHT22;54079;44.540;18.784;2023-11-22T03:12:02;10.50;99.90
55777;DHT22;54079;44.540;18.784;2023-11-22T03:14:28;10.50;99.90
55777;DHT22;54079;44.540;18.784;2023-11-22T03:16:57;10.50;99.90
55777;DHT22;54079;44.540;18.784;2023-11-22T03:19:23;10.60;99.90
55777;DHT22;54079;44.540;18.784;2023-11-22T03:21:49;10.40;99.90
55777;DHT22;54079;44.540;18.784;2023-11-22T03:24:15;10.40;99.90
55777;DHT22;54079;44.540;18.784;2023-11-22T03:26:42;10.40;99.90
55777;DHT22;54079;44.540;18.784;2023-11-22T03:29:08;10.50;99.90
55777;DHT22;54079;44.540;18.784;2023-11-22T03:31:34;10.40;99.90
55777;DHT22;54079;44.540;18.784;2023-11-22T03:34:00;10.30;99.90
55777;DHT22;54079;44.540;18.784;2023-11-22T03:36:26;10.40;99.90
55777;DHT22;54079;44.540;18.784;2023-11-22T03:38:53;10.50;99.90
55777;DHT22;54079;44.540;18.784;2023-11-22T03:41:19;10.60;99.90
55777;DHT22;54079;44.540;18.784;2023-11-22T03:43:45;10.60;99.90
55777;DHT22;54079;44.540;18.784;2023-11-22T03:46:10;10.60;99.90
55777;DHT22;54079;44.540;18.784;2023-11-22T03:48:37;10.50;99.90
55777;DHT22;54079;44.540;18.784;2023-11-22T03:51:03;10.50;99.90
55777;DHT22;54079;44.540;18.784;2023-11-22T03:53:29;10.50;99.90
55777;DHT22;54079;44.540;18.784;2023-11-22T03:55:55;10.40;99.90
55777;DHT22;54079;44.540;18.784;2023-11-22T03:58:21;10.10;99.90
55777;DHT22;54079;44.540;18.784;2023-11-22T04:00:47;10.20;99.90
55777;DHT22;54079;44.540;18.784;2023-11-22T04:03:13;10.30;99.90
55777;DHT22;54079;44.540;18.784;2023-11-22T04:05:39;10.30;99.90
55777;DHT22;54079;44.540;18.784;2023-11-22T04:08:06;10.20;99.90
55777;DHT22;54079;44.540;18.784;2023-11-22T04:10:34;9.90;99.90
55777;DHT22;54079;44.540;18.784;2023-11-22T04:13:00;10.00;99.90
55777;DHT22;54079;44.540;18.784;2023-11-22T04:15:26;10.10;99.90
55777;DHT22;54079;44.540;18.784;2023-11-22T04:17:52;9.90;99.90
55777;DHT22;54079;44.540;18.784;2023-11-22T04:20:20;10.10;99.90
55777;DHT22;54079;44.540;18.784;2023-11-22T04:22:46;10.10;99.90
55777;DHT22;54079;44.540;18.784;2023-11-22T04:25:12;10.00;99.90
55777;DHT22;54079;44.540;18.784;2023-11-22T04:27:39;10.00;99.90
55777;DHT22;54079;44.540;18.784;2023-11-22T04:30:07;10.10;99.90
55777;DHT22;54079;44.540;18.784;2023-11-22T04:32:40;10.10;99.90
55777;DHT22;54079;44.540;18.784;2023-11-22T04:35:10;10.20;99.90
55777;DHT22;54079;44.540;18.784;2023-11-22T04:37:36;10.30;99.90
55777;DHT22;54079;44.540;18.784;2023-11-22T04:40:03;10.30;99.90
55777;DHT22;54079;44.540;18.784;2023-11-22T04:42:34;10.40;99.90
55777;DHT22;54079;44.540;18.784;2023-11-22T04:45:03;10.40;99.90
55777;DHT22;54079;44.540;18.784;2023-11-22T04:47:29;10.40;99.90
55777;DHT22;54079;44.540;18.784;2023-11-22T04:49:55;10.40;99.90
55777;DHT22;54079;44.540;18.784;2023-11-22T04:52:21;10.40;99.90
55777;DHT22;54079;44.540;18.784;2023-11-22T04:54:47;10.20;99.90
55777;DHT22;54079;44.540;18.784;2023-11-22T04:57:12;10.30;99.90
55777;DHT22;54079;44.540;18.784;2023-11-22T04:59:38;10.20;99.90
55777;DHT22;54079;44.540;18.784;2023-11-22T05:02:04;10.20;99.90
55777;DHT22;54079;44.540;18.784;2023-11-22T05:04:32;10.20;99.90
55777;DHT22;54079;44.540;18.784;2023-11-22T05:06:58;10.20;99.90
55777;DHT22;54079;44.540;18.784;2023-11-22T05:09:24;10.40;99.90
55777;DHT22;54079;44.540;18.784;2023-11-22T05:11:50;10.40;99.90
55777;DHT22;54079;44.540;18.784;2023-11-22T05:14:17;10.30;99.90
55777;DHT22;54079;44.540;18.784;2023-11-22T05:16:43;10.10;99.90
55777;DHT22;54079;44.540;18.784;2023-11-22T05:19:09;10.00;99.90
55777;DHT22;54079;44.540;18.784;2023-11-22T05:21:36;10.10;99.90
55777;DHT22;54079;44.540;18.784;2023-11-22T05:24:02;10.20;99.90
55777;DHT22;54079;44.540;18.784;2023-11-22T05:26:28;10.40;99.90
55777;DHT22;54079;44.540;18.784;2023-11-22T05:28:54;10.30;99.90
55777;DHT22;54079;44.540;18.784;2023-11-22T05:31:20;10.20;99.90
55777;DHT22;54079;44.540;18.784;2023-11-22T05:33:46;10.10;99.90
55777;DHT22;54079;44.540;18.784;2023-11-22T05:36:12;10.20;99.90
55777;DHT22;54079;44.540;18.784;2023-11-22T05:38:39;10.30;99.90
55777;DHT22;54079;44.540;18.784;2023-11-22T05:41:05;10.40;99.90
55777;DHT22;54079;44.540;18.784;2023-11-22T05:43:31;10.30;99.90
55777;DHT22;54079;44.540;18.784;2023-11-22T05:45:57;10.30;99.90
55777;DHT22;54079;44.540;18.784;2023-11-22T05:48:23;10.60;99.90
55777;DHT22;54079;44.540;18.784;2023-11-22T05:50:49;10.80;99.90
55777;DHT22;54079;44.540;18.784;2023-11-22T05:53:15;11.00;99.90
55777;DHT22;54079;44.540;18.784;2023-11-22T05:55:48;10.70;99.90
55777;DHT22;54079;44.540;18.784;2023-11-22T05:58:17;10.80;99.90
55777;DHT22;54079;44.540;18.784;2023-11-22T06:00:47;10.90;99.90
55777;DHT22;54079;44.540;18.784;2023-11-22T06:03:13;11.00;99.90
55777;DHT22;54079;44.540;18.784;2023-11-22T06:05:40;11.10;99.90
55777;DHT22;54079;44.540;18.784;2023-11-22T06:08:06;11.00;99.90
55777;DHT22;54079;44.540;18.784;2023-11-22T06:10:32;11.10;99.90
55777;DHT22;54079;44.540;18.784;2023-11-22T06:12:59;11.30;99.90
55777;DHT22;54079;44.540;18.784;2023-11-22T06:15:25;11.10;99.90
55777;DHT22;54079;44.540;18.784;2023-11-22T06:17:51;11.10;99.90
55777;DHT22;54079;44.540;18.784;2023-11-22T06:20:17;11.20;99.90
55777;DHT22;54079;44.540;18.784;2023-11-22T06:22:43;11.30;99.90
55777;DHT22;54079;44.540;18.784;2023-11-22T06:25:10;11.40;99.90
55777;DHT22;54079;44.540;18.784;2023-11-22T06:27:37;11.40;99.90
55777;DHT22;54079;44.540;18.784;2023-11-22T06:30:03;11.40;99.90
55777;DHT22;54079;44.540;18.784;2023-11-22T06:32:29;11.10;99.90
55777;DHT22;54079;44.540;18.784;2023-11-22T06:34:55;11.00;99.90
55777;DHT22;54079;44.540;18.784;2023-11-22T06:37:21;10.80;99.90
55777;DHT22;54079;44.540;18.784;2023-11-22T06:39:47;10.80;99.90
55777;DHT22;54079;44.540;18.784;2023-11-22T06:42:13;10.80;99.90
55777;DHT22;54079;44.540;18.784;2023-11-22T06:44:39;10.80;99.90
55777;DHT22;54079;44.540;18.784;2023-11-22T06:47:08;10.90;99.90
55777;DHT22;54079;44.540;18.784;2023-11-22T06:49:34;10.70;99.90
55777;DHT22;54079;44.540;18.784;2023-11-22T06:52:00;10.60;99.90
55777;DHT22;54079;44.540;18.784;2023-11-22T06:54:26;10.50;99.90
55777;DHT22;54079;44.540;18.784;2023-11-22T06:56:52;10.70;99.90
55777;DHT22;54079;44.540;18.784;2023-11-22T06:59:19;10.40;99.90
55777;DHT22;54079;44.540;18.784;2023-11-22T07:01:45;10.30;99.90
55777;DHT22;54079;44.540;18.784;2023-11-22T07:04:11;10.40;99.90
55777;DHT22;54079;44.540;18.784;2023-11-22T07:06:37;10.40;99.90
55777;DHT22;54079;44.540;18.784;2023-11-22T07:09:04;10.20;99.90
55777;DHT22;54079;44.540;18.784;2023-11-22T07:11:31;10.20;99.90
55777;DHT22;54079;44.540;18.784;2023-11-22T07:13:57;10.30;99.90
55777;DHT22;54079;44.540;18.784;2023-11-22T07:16:26;10.60;99.90
55777;DHT22;54079;44.540;18.784;2023-11-22T07:18:52;10.60;99.90
55777;DHT22;54079;44.540;18.784;2023-11-22T07:21:18;10.70;99.90
55777;DHT22;54079;44.540;18.784;2023-11-22T07:23:45;10.90;99.90
55777;DHT22;54079;44.540;18.784;2023-11-22T07:26:11;10.60;99.90
55777;DHT22;54079;44.540;18.784;2023-11-22T07:28:40;10.80;99.90
55777;DHT22;54079;44.540;18.784;2023-11-22T07:31:09;10.70;99.90
55777;DHT22;54079;44.540;18.784;2023-11-22T07:33:35;10.70;99.90
55777;DHT22;54079;44.540;18.784;2023-11-22T07:36:01;10.50;99.90
55777;DHT22;54079;44.540;18.784;2023-11-22T07:38:29;10.70;99.90
55777;DHT22;54079;44.540;18.784;2023-11-22T07:40:59;10.60;99.90
55777;DHT22;54079;44.540;18.784;2023-11-22T07:43:25;10.80;99.90
55777;DHT22;54079;44.540;18.784;2023-11-22T07:45:51;10.80;99.90
55777;DHT22;54079;44.540;18.784;2023-11-22T07:48:17;10.60;99.90
55777;DHT22;54079;44.540;18.784;2023-11-22T07:50:43;10.70;99.90
55777;DHT22;54079;44.540;18.784;2023-11-22T07:53:11;10.90;99.90
55777;DHT22;54079;44.540;18.784;2023-11-22T07:55:38;10.90;99.90
55777;DHT22;54079;44.540;18.784;2023-11-22T07:58:04;10.90;99.90
55777;DHT22;54079;44.540;18.784;2023-11-22T08:00:33;10.60;99.90
55777;DHT22;54079;44.540;18.784;2023-11-22T08:03:02;10.60;99.90
55777;DHT22;54079;44.540;18.784;2023-11-22T08:05:31;10.40;99.90
55777;DHT22;54079;44.540;18.784;2023-11-22T08:08:04;10.40;99.90
55777;DHT22;54079;44.540;18.784;2023-11-22T08:10:34;10.20;99.90
55777;DHT22;54079;44.540;18.784;2023-11-22T08:13:00;10.00;99.90
55777;DHT22;54079;44.540;18.784;2023-11-22T08:15:28;10.10;99.90
55777;DHT22;54079;44.540;18.784;2023-11-22T08:17:54;10.10;99.90
55777;DHT22;54079;44.540;18.784;2023-11-22T08:20:20;10.20;99.90
55777;DHT22;54079;44.540;18.784;2023-11-22T08:22:47;9.90;99.90
55777;DHT22;54079;44.540;18.784;2023-11-22T08:25:16;9.90;99.90
55777;DHT22;54079;44.540;18.784;2023-11-22T08:27:43;10.30;99.90
55777;DHT22;54079;44.540;18.784;2023-11-22T08:30:09;10.20;99.90
55777;DHT22;54079;44.540;18.784;2023-11-22T08:32:42;10.30;99.90
55777;DHT22;54079;44.540;18.784;2023-11-22T08:35:09;10.20;99.90
55777;DHT22;54079;44.540;18.784;2023-11-22T08:37:35;10.00;99.90
55777;DHT22;54079;44.540;18.784;2023-11-22T08:40:05;10.10;99.90
55777;DHT22;54079;44.540;18.784;2023-11-22T08:42:32;10.00;99.90
55777;DHT22;54079;44.540;18.784;2023-11-22T08:44:58;9.90;99.90
55777;DHT22;54079;44.540;18.784;2023-11-22T08:47:24;9.90;99.90
55777;DHT22;54079;44.540;18.784;2023-11-22T08:49:50;9.90;99.90
55777;DHT22;54079;44.540;18.784;2023-11-22T08:52:16;9.70;99.90
55777;DHT22;54079;44.540;18.784;2023-11-22T08:54:42;9.60;99.90
55777;DHT22;54079;44.540;18.784;2023-11-22T08:57:08;9.60;99.90
55777;DHT22;54079;44.540;18.784;2023-11-22T08:59:36;9.70;99.90
55777;DHT22;54079;44.540;18.784;2023-11-22T09:02:04;9.60;99.90
55777;DHT22;54079;44.540;18.784;2023-11-22T09:04:31;9.60;99.90
55777;DHT22;54079;44.540;18.784;2023-11-22T09:06:59;9.50;99.90
55777;DHT22;54079;44.540;18.784;2023-11-22T09:09:26;9.50;99.90
55777;DHT22;54079;44.540;18.784;2023-11-22T09:11:59;9.30;99.90
55777;DHT22;54079;44.540;18.784;2023-11-22T09:14:25;9.50;99.90
55777;DHT22;54079;44.540;18.784;2023-11-22T09:16:52;9.60;99.90
55777;DHT22;54079;44.540;18.784;2023-11-22T09:19:24;9.50;99.90
55777;DHT22;54079;44.540;18.784;2023-11-22T09:21:51;9.50;99.90
55777;DHT22;54079;44.540;18.784;2023-11-22T09:24:18;9.40;99.90
55777;DHT22;54079;44.540;18.784;2023-11-22T09:26:45;9.30;99.90
55777;DHT22;54079;44.540;18.784;2023-11-22T09:29:11;9.20;99.90
55777;DHT22;54079;44.540;18.784;2023-11-22T09:31:40;9.40;99.90
55777;DHT22;54079;44.540;18.784;2023-11-22T09:34:09;9.40;99.90
55777;DHT22;54079;44.540;18.784;2023-11-22T09:36:35;9.60;99.90
55777;DHT22;54079;44.540;18.784;2023-11-22T09:39:02;9.80;99.90
55777;DHT22;54079;44.540;18.784;2023-11-22T09:41:29;10.00;99.90
55777;DHT22;54079;44.540;18.784;2023-11-22T09:43:55;9.80;99.90
55777;DHT22;54079;44.540;18.784;2023-11-22T09:46:22;9.70;99.90
55777;DHT22;54079;44.540;18.784;2023-11-22T09:48:49;9.80;99.90
55777;DHT22;54079;44.540;18.784;2023-11-22T09:51:24;9.90;99.90
55777;DHT22;54079;44.540;18.784;2023-11-22T09:53:59;9.60;99.90
55777;DHT22;54079;44.540;18.784;2023-11-22T09:56:30;9.80;99.90
55777;DHT22;54079;44.540;18.784;2023-11-22T09:58:58;10.00;99.90
55777;DHT22;54079;44.540;18.784;2023-11-22T10:01:27;10.00;99.90
55777;DHT22;54079;44.540;18.784;2023-11-22T10:04:13;10.10;99.90
55777;DHT22;54079;44.540;18.784;2023-11-22T10:06:39;9.90;99.90
55777;DHT22;54079;44.540;18.784;2023-11-22T10:09:06;9.90;99.90
55777;DHT22;54079;44.540;18.784;2023-11-22T10:11:37;9.70;99.90
55777;DHT22;54079;44.540;18.784;2023-11-22T10:14:05;9.50;99.90
55777;DHT22;54079;44.540;18.784;2023-11-22T10:16:32;9.60;99.90
55777;DHT22;54079;44.540;18.784;2023-11-22T10:18:58;9.40;99.90
55777;DHT22;54079;44.540;18.784;2023-11-22T10:21:30;9.40;99.90
55777;DHT22;54079;44.540;18.784;2023-11-22T10:24:01;9.30;99.90
55777;DHT22;54079;44.540;18.784;2023-11-22T10:26:28;9.40;99.90
55777;DHT22;54079;44.540;18.784;2023-11-22T10:28:55;9.60;99.90
55777;DHT22;54079;44.540;18.784;2023-11-22T10:31:22;9.50;99.90
55777;DHT22;54079;44.540;18.784;2023-11-22T10:33:50;9.60;99.90
55777;DHT22;54079;44.540;18.784;2023-11-22T10:36:16;9.60;99.90
55777;DHT22;54079;44.540;18.784;2023-11-22T10:38:49;9.60;99.90
55777;DHT22;54079;44.540;18.784;2023-11-22T10:41:16;9.60;99.90
55777;DHT22;54079;44.540;18.784;2023-11-22T10:43:44;9.70;99.90
55777;DHT22;54079;44.540;18.784;2023-11-22T10:46:13;9.70;99.90
55777;DHT22;54079;44.540;18.784;2023-11-22T10:48:39;9.50;99.90
55777;DHT22;54079;44.540;18.784;2023-11-22T10:51:05;9.30;99.90
55777;DHT22;54079;44.540;18.784;2023-11-22T10:53:36;9.40;99.90
55777;DHT22;54079;44.540;18.784;2023-11-22T10:56:12;9.40;99.90
55777;DHT22;54079;44.540;18.784;2023-11-22T10:58:48;9.10;99.90
55777;DHT22;54079;44.540;18.784;2023-11-22T11:01:23;9.20;99.90
55777;DHT22;54079;44.540;18.784;2023-11-22T11:04:09;9.20;99.90
55777;DHT22;54079;44.540;18.784;2023-11-22T11:06:37;9.10;99.90
55777;DHT22;54079;44.540;18.784;2023-11-22T11:09:04;8.90;99.90
55777;DHT22;54079;44.540;18.784;2023-11-22T11:11:33;8.90;99.90
55777;DHT22;54079;44.540;18.784;2023-11-22T11:14:01;9.10;99.90
55777;DHT22;54079;44.540;18.784;2023-11-22T11:16:29;9.20;99.90
55777;DHT22;54079;44.540;18.784;2023-11-22T11:18:57;9.20;99.90
55777;DHT22;54079;44.540;18.784;2023-11-22T11:21:25;9.10;99.90
55777;DHT22;54079;44.540;18.784;2023-11-22T11:23:55;9.10;99.90
55777;DHT22;54079;44.540;18.784;2023-11-22T11:26:27;9.20;99.90
55777;DHT22;54079;44.540;18.784;2023-11-22T11:28:54;9.00;99.90
55777;DHT22;54079;44.540;18.784;2023-11-22T11:31:21;9.00;99.90
55777;DHT22;54079;44.540;18.784;2023-11-22T11:38:58;9.40;99.90
55777;DHT22;54079;44.540;18.784;2023-11-22T11:41:35;9.30;99.90
55777;DHT22;54079;44.540;18.784;2023-11-22T11:44:07;9.30;99.90
55777;DHT22;54079;44.540;18.784;2023-11-22T11:46:36;9.50;99.90
55777;DHT22;54079;44.540;18.784;2023-11-22T11:49:06;9.50;99.90
55777;DHT22;54079;44.540;18.784;2023-11-22T11:51:33;9.20;99.90
55777;DHT22;54079;44.540;18.784;2023-11-22T11:53:59;9.40;99.90
55777;DHT22;54079;44.540;18.784;2023-11-22T11:56:26;9.20;99.90
55777;DHT22;54079;44.540;18.784;2023-11-22T11:58:56;9.30;99.90
55777;DHT22;54079;44.540;18.784;2023-11-22T12:01:26;9.30;99.90
55777;DHT22;54079;44.540;18.784;2023-11-22T12:03:53;9.10;99.90
55777;DHT22;54079;44.540;18.784;2023-11-22T12:06:19;9.00;99.90
55777;DHT22;54079;44.540;18.784;2023-11-22T12:08:45;9.10;99.90
55777;DHT22;54079;44.540;18.784;2023-11-22T12:11:13;9.10;99.90
55777;DHT22;54079;44.540;18.784;2023-11-22T12:13:41;9.10;99.90
55777;DHT22;54079;44.540;18.784;2023-11-22T12:16:15;8.80;99.90
55777;DHT22;54079;44.540;18.784;2023-11-22T12:18:46;8.80;99.90
55777;DHT22;54079;44.540;18.784;2023-11-22T12:21:13;9.00;99.90
55777;DHT22;54079;44.540;18.784;2023-11-22T12:23:41;9.00;99.90
55777;DHT22;54079;44.540;18.784;2023-11-22T12:26:12;9.00;99.90
55777;DHT22;54079;44.540;18.784;2023-11-22T12:28:45;8.90;99.90
55777;DHT22;54079;44.540;18.784;2023-11-22T12:31:13;8.80;99.90
55777;DHT22;54079;44.540;18.784;2023-11-22T12:33:40;8.80;99.90
55777;DHT22;54079;44.540;18.784;2023-11-22T12:36:08;8.90;99.90
55777;DHT22;54079;44.540;18.784;2023-11-22T12:38:41;8.80;99.90
55777;DHT22;54079;44.540;18.784;2023-11-22T12:41:07;8.90;99.90
55777;DHT22;54079;44.540;18.784;2023-11-22T12:43:34;9.20;99.90
55777;DHT22;54079;44.540;18.784;2023-11-22T12:46:05;9.10;99.90
55777;DHT22;54079;44.540;18.784;2023-11-22T12:48:41;9.20;99.90
55777;DHT22;54079;44.540;18.784;2023-11-22T12:51:17;9.00;99.90
55777;DHT22;54079;44.540;18.784;2023-11-22T12:53:48;9.10;99.90
55777;DHT22;54079;44.540;18.784;2023-11-22T12:56:15;9.10;99.90
55777;DHT22;54079;44.540;18.784;2023-11-22T12:58:41;9.20;99.90
55777;DHT22;54079;44.540;18.784;2023-11-22T13:01:07;9.10;99.90
55777;DHT22;54079;44.540;18.784;2023-11-22T13:03:33;9.10;99.90
55777;DHT22;54079;44.540;18.784;2023-11-22T13:05:59;9.00;99.90
55777;DHT22;54079;44.540;18.784;2023-11-22T13:08:25;9.10;99.90
55777;DHT22;54079;44.540;18.784;2023-11-22T13:10:55;9.10;99.90
55777;DHT22;54079;44.540;18.784;2023-11-22T13:13:23;9.30;99.90
55777;DHT22;54079;44.540;18.784;2023-11-22T13:15:49;9.20;99.90
55777;DHT22;54079;44.540;18.784;2023-11-22T13:18:16;9.00;99.90
55777;DHT22;54079;44.540;18.784;2023-11-22T13:20:43;9.20;99.90
55777;DHT22;54079;44.540;18.784;2023-11-22T13:23:09;9.50;99.90
55777;DHT22;54079;44.540;18.784;2023-11-22T13:25:36;9.30;99.90
55777;DHT22;54079;44.540;18.784;2023-11-22T13:28:02;9.40;99.90
55777;DHT22;54079;44.540;18.784;2023-11-22T13:30:30;9.40;99.90
55777;DHT22;54079;44.540;18.784;2023-11-22T13:32:56;9.40;99.90
55777;DHT22;54079;44.540;18.784;2023-11-22T13:35:26;9.40;99.90
55777;DHT22;54079;44.540;18.784;2023-11-22T13:37:57;9.30;99.90
55777;DHT22;54079;44.540;18.784;2023-11-22T13:40:24;9.30;99.90
55777;DHT22;54079;44.540;18.784;2023-11-22T13:42:53;9.20;99.90
55777;DHT22;54079;44.540;18.784;2023-11-22T13:45:19;9.20;99.90
55777;DHT22;54079;44.540;18.784;2023-11-22T13:47:55;9.40;99.90
55777;DHT22;54079;44.540;18.784;2023-11-22T13:50:29;9.10;99.90
55777;DHT22;54079;44.540;18.784;2023-11-22T13:52:56;9.10;99.90
55777;DHT22;54079;44.540;18.784;2023-11-22T13:55:23;8.90;99.90
55777;DHT22;54079;44.540;18.784;2023-11-22T13:57:53;9.10;99.90
55777;DHT22;54079;44.540;18.784;2023-11-22T14:00:20;9.20;99.90
55777;DHT22;54079;44.540;18.784;2023-11-22T14:02:53;9.20;99.90
55777;DHT22;54079;44.540;18.784;2023-11-22T14:05:26;9.40;99.90
55777;DHT22;54079;44.540;18.784;2023-11-22T14:07:53;9.30;99.90
55777;DHT22;54079;44.540;18.784;2023-11-22T14:10:20;9.40;99.90
55777;DHT22;54079;44.540;18.784;2023-11-22T14:12:48;9.50;99.90
55777;DHT22;54079;44.540;18.784;2023-11-22T14:15:15;9.60;99.90
55777;DHT22;54079;44.540;18.784;2023-11-22T14:17:41;9.70;99.90
55777;DHT22;54079;44.540;18.784;2023-11-22T14:20:10;9.80;99.90
55777;DHT22;54079;44.540;18.784;2023-11-22T14:22:37;10.00;99.90
55777;DHT22;54079;44.540;18.784;2023-11-22T14:25:05;9.90;99.90
55777;DHT22;54079;44.540;18.784;2023-11-22T14:27:40;9.90;99.90
55777;DHT22;54079;44.540;18.784;2023-11-22T14:30:07;9.90;99.90
55777;DHT22;54079;44.540;18.784;2023-11-22T14:32:36;10.00;99.90
55777;DHT22;54079;44.540;18.784;2023-11-22T14:35:06;10.10;99.90
55777;DHT22;54079;44.540;18.784;2023-11-22T14:37:33;10.20;99.90
55777;DHT22;54079;44.540;18.784;2023-11-22T14:40:03;10.30;99.90
55777;DHT22;54079;44.540;18.784;2023-11-22T14:42:30;10.40;99.90
55777;DHT22;54079;44.540;18.784;2023-11-22T14:44:57;10.40;99.90
55777;DHT22;54079;44.540;18.784;2023-11-22T14:47:23;10.30;99.90
55777;DHT22;54079;44.540;18.784;2023-11-22T14:49:52;10.30;99.90
55777;DHT22;54079;44.540;18.784;2023-11-22T14:52:19;10.30;99.90
55777;DHT22;54079;44.540;18.784;2023-11-22T14:54:47;10.10;99.90
55777;DHT22;54079;44.540;18.784;2023-11-22T14:57:14;10.20;99.90
55777;DHT22;54079;44.540;18.784;2023-11-22T14:59:43;10.30;99.90
55777;DHT22;54079;44.540;18.784;2023-11-22T15:02:10;10.50;99.90
55777;DHT22;54079;44.540;18.784;2023-11-22T15:04:38;10.40;99.90
55777;DHT22;54079;44.540;18.784;2023-11-22T15:07:04;10.50;99.90
55777;DHT22;54079;44.540;18.784;2023-11-22T15:09:33;10.40;99.90
55777;DHT22;54079;44.540;18.784;2023-11-22T15:12:00;10.40;99.90
55777;DHT22;54079;44.540;18.784;2023-11-22T15:14:33;10.30;99.90
55777;DHT22;54079;44.540;18.784;2023-11-22T15:16:59;9.90;99.90
55777;DHT22;54079;44.540;18.784;2023-11-22T15:19:31;9.80;99.90
55777;DHT22;54079;44.540;18.784;2023-11-22T15:21:57;10.10;99.90
55777;DHT22;54079;44.540;18.784;2023-11-22T15:24:23;10.30;99.90
55777;DHT22;54079;44.540;18.784;2023-11-22T15:26:49;10.40;99.90
55777;DHT22;54079;44.540;18.784;2023-11-22T15:29:15;10.50;99.90